sensor_id;sensor_type;location;lat;lon;timestamp;pressure;altitude;pressure_sealevel;temperature;humidity
6393;BME280;3229;42.674;23.282;2022-10-16T00:01:32;95275.97;;;13.31;66.26
6393;BME280;3229;42.674;23.282;2022-10-16T00:04:01;95252.31;;;13.18;66.43
6393;BME280;3229;42.674;23.282;2022-10-16T00:06:29;95273.94;;;13.25;66.46
6393;BME280;3229;42.674;23.282;2022-10-16T00:08:56;95278.41;;;13.23;66.39
6393;BME280;3229;42.674;23.282;2022-10-16T00:11:25;95283.41;;;13.24;66.54
6393;BME280;3229;42.674;23.282;2022-10-16T00:13:55;95270.72;;;13.13;66.51
6393;BME280;3229;42.674;23.282;2022-10-16T00:16:23;95277.03;;;13.19;66.53
6393;BME280;3229;42.674;23.282;2022-10-16T00:18:51;95281.91;;;13.22;66.58
6393;BME280;3229;42.674;23.282;2022-10-16T00:21:20;95286.34;;;13.20;66.68
6393;BME280;3229;42.674;23.282;2022-10-16T00:23:50;95286.50;;;13.18;66.74
6393;BME280;3229;42.674;23.282;2022-10-16T00:26:18;95260.84;;;12.99;66.56
6393;BME280;3229;42.674;23.282;2022-10-16T00:28:46;95301.22;;;13.16;66.86
6393;BME280;3229;42.674;23.282;2022-10-16T00:31:13;95294.25;;;13.09;66.69
6393;BME280;3229;42.674;23.282;2022-10-16T00:33:41;95300.56;;;13.14;66.63
6393;BME280;3229;42.674;23.282;2022-10-16T00:36:11;95257.13;;;12.84;66.59
6393;BME280;3229;42.674;23.282;2022-10-16T00:38:39;95278.97;;;12.97;66.88
6393;BME280;3229;42.674;23.282;2022-10-16T00:41:07;95296.25;;;13.05;66.66
6393;BME280;3229;42.674;23.282;2022-10-16T00:43:39;95294.34;;;13.07;66.89
6393;BME280;3229;42.674;23.282;2022-10-16T00:46:13;95293.56;;;13.06;66.90
6393;BME280;3229;42.674;23.282;2022-10-16T00:48:50;95302.22;;;13.05;67.02
6393;BME280;3229;42.674;23.282;2022-10-16T00:51:23;95291.25;;;13.03;66.85
6393;BME280;3229;42.674;23.282;2022-10-16T00:53:52;95293.16;;;13.01;66.84
6393;BME280;3229;42.674;23.282;2022-10-16T00:56:19;95250.34;;;12.73;66.93
6393;BME280;3229;42.674;23.282;2022-10-16T00:58:46;95259.41;;;12.77;67.05
6393;BME280;3229;42.674;23.282;2022-10-16T01:01:13;95286.41;;;12.91;66.88
6393;BME280;3229;42.674;23.282;2022-10-16T01:03:40;95294.53;;;12.96;66.97
6393;BME280;3229;42.674;23.282;2022-10-16T01:06:27;95239.03;;;12.56;66.93
6393;BME280;3229;42.674;23.282;2022-10-16T01:09:06;95297.50;;;12.91;67.15
6393;BME280;3229;42.674;23.282;2022-10-16T01:11:44;95298.31;;;12.92;67.04
6393;BME280;3229;42.674;23.282;2022-10-16T01:14:15;95301.16;;;12.89;66.92
6393;BME280;3229;42.674;23.282;2022-10-16T01:16:49;95303.16;;;12.85;67.16
6393;BME280;3229;42.674;23.282;2022-10-16T01:19:30;95266.56;;;12.64;67.07
6393;BME280;3229;42.674;23.282;2022-10-16T01:22:01;95288.88;;;12.83;67.15
6393;BME280;3229;42.674;23.282;2022-10-16T01:24:33;95296.69;;;12.81;67.18
6393;BME280;3229;42.674;23.282;2022-10-16T01:27:09;95291.69;;;12.79;67.33
6393;BME280;3229;42.674;23.282;2022-10-16T01:29:42;95290.91;;;12.79;67.16
6393;BME280;3229;42.674;23.282;2022-10-16T01:32:22;95284.94;;;12.78;67.12
6393;BME280;3229;42.674;23.282;2022-10-16T01:34:55;95291.84;;;12.78;67.11
6393;BME280;3229;42.674;23.282;2022-10-16T01:37:31;95247.28;;;12.50;67.07
6393;BME280;3229;42.674;23.282;2022-10-16T01:40:00;95266.44;;;12.55;67.19
6393;BME280;3229;42.674;23.282;2022-10-16T01:42:33;95249.72;;;12.42;67.18
6393;BME280;3229;42.674;23.282;2022-10-16T01:45:02;95294.94;;;12.72;67.07
6393;BME280;3229;42.674;23.282;2022-10-16T01:47:49;95219.06;;;12.21;67.26
6393;BME280;3229;42.674;23.282;2022-10-16T01:50:19;95302.78;;;12.70;67.28
6393;BME280;3229;42.674;23.282;2022-10-16T01:52:49;95305.47;;;12.69;67.36
6393;BME280;3229;42.674;23.282;2022-10-16T01:55:22;95301.44;;;12.66;67.53
6393;BME280;3229;42.674;23.282;2022-10-16T01:57:53;95303.19;;;12.66;67.39
6393;BME280;3229;42.674;23.282;2022-10-16T02:00:22;95305.06;;;12.64;67.42
6393;BME280;3229;42.674;23.282;2022-10-16T02:02:51;95273.06;;;12.39;67.40
6393;BME280;3229;42.674;23.282;2022-10-16T02:05:23;95304.41;;;12.62;67.13
6393;BME280;3229;42.674;23.282;2022-10-16T02:07:53;95306.97;;;12.62;67.51
6393;BME280;3229;42.674;23.282;2022-10-16T02:10:21;95318.31;;;12.59;67.40
6393;BME280;3229;42.674;23.282;2022-10-16T02:12:53;95294.13;;;12.42;67.48
6393;BME280;3229;42.674;23.282;2022-10-16T02:15:22;95315.06;;;12.57;67.47
6393;BME280;3229;42.674;23.282;2022-10-16T02:17:49;95246.59;;;12.09;67.47
6393;BME280;3229;42.674;23.282;2022-10-16T02:20:17;95323.84;;;12.54;67.63
6393;BME280;3229;42.674;23.282;2022-10-16T02:22:48;95323.03;;;12.54;67.55
6393;BME280;3229;42.674;23.282;2022-10-16T02:25:21;95317.22;;;12.42;67.49
6393;BME280;3229;42.674;23.282;2022-10-16T02:27:55;95333.16;;;12.46;67.78
6393;BME280;3229;42.674;23.282;2022-10-16T02:30:27;95318.41;;;12.38;67.60
6393;BME280;3229;42.674;23.282;2022-10-16T02:32:56;95295.72;;;12.24;67.25
6393;BME280;3229;42.674;23.282;2022-10-16T02:35:25;95331.28;;;12.48;67.69
6393;BME280;3229;42.674;23.282;2022-10-16T02:37:54;95328.81;;;12.46;67.36
6393;BME280;3229;42.674;23.282;2022-10-16T02:40:22;95324.09;;;12.42;67.66
6393;BME280;3229;42.674;23.282;2022-10-16T02:42:50;95306.13;;;12.32;67.71
6393;BME280;3229;42.674;23.282;2022-10-16T02:45:20;95334.50;;;12.40;67.73
6393;BME280;3229;42.674;23.282;2022-10-16T02:47:47;95331.25;;;12.38;67.80
6393;BME280;3229;42.674;23.282;2022-10-16T02:50:15;95347.31;;;12.40;67.75
6393;BME280;3229;42.674;23.282;2022-10-16T02:52:42;95349.88;;;12.40;67.57
6393;BME280;3229;42.674;23.282;2022-10-16T02:55:09;95314.88;;;12.20;67.57
6393;BME280;3229;42.674;23.282;2022-10-16T02:57:36;95345.41;;;12.33;67.58
6393;BME280;3229;42.674;23.282;2022-10-16T03:00:06;95350.28;;;12.36;67.72
6393;BME280;3229;42.674;23.282;2022-10-16T03:02:34;95346.09;;;12.35;67.88
6393;BME280;3229;42.674;23.282;2022-10-16T03:05:01;95342.19;;;12.30;67.68
6393;BME280;3229;42.674;23.282;2022-10-16T03:07:29;95353.91;;;12.33;67.81
6393;BME280;3229;42.674;23.282;2022-10-16T03:09:58;95351.75;;;12.28;67.71
6393;BME280;3229;42.674;23.282;2022-10-16T03:12:25;95351.59;;;12.30;67.78
6393;BME280;3229;42.674;23.282;2022-10-16T03:14:52;95352.56;;;12.29;67.88
6393;BME280;3229;42.674;23.282;2022-10-16T03:17:20;95350.94;;;12.28;67.63
6393;BME280;3229;42.674;23.282;2022-10-16T03:19:48;95347.41;;;12.19;67.89
6393;BME280;3229;42.674;23.282;2022-10-16T03:22:15;95352.16;;;12.24;68.00
6393;BME280;3229;42.674;23.282;2022-10-16T03:24:42;95359.03;;;12.23;67.77
6393;BME280;3229;42.674;23.282;2022-10-16T03:27:09;95365.09;;;12.22;67.77
6393;BME280;3229;42.674;23.282;2022-10-16T03:29:36;95366.97;;;12.20;67.80
6393;BME280;3229;42.674;23.282;2022-10-16T03:32:03;95356.88;;;12.19;67.95
6393;BME280;3229;42.674;23.282;2022-10-16T03:34:30;95368.06;;;12.18;67.69
6393;BME280;3229;42.674;23.282;2022-10-16T03:36:58;95313.72;;;11.84;67.66
6393;BME280;3229;42.674;23.282;2022-10-16T03:39:25;95369.13;;;12.15;67.79
6393;BME280;3229;42.674;23.282;2022-10-16T03:41:52;95366.72;;;12.14;67.93
6393;BME280;3229;42.674;23.282;2022-10-16T03:44:19;95362.50;;;12.13;67.80
6393;BME280;3229;42.674;23.282;2022-10-16T03:46:48;95354.38;;;12.08;67.72
6393;BME280;3229;42.674;23.282;2022-10-16T03:49:15;95357.66;;;12.10;67.67
6393;BME280;3229;42.674;23.282;2022-10-16T03:51:42;95351.97;;;12.06;67.91
6393;BME280;3229;42.674;23.282;2022-10-16T03:54:11;95323.03;;;11.85;67.80
6393;BME280;3229;42.674;23.282;2022-10-16T03:56:38;95356.97;;;12.08;67.65
6393;BME280;3229;42.674;23.282;2022-10-16T03:59:04;95292.47;;;11.72;67.62
6393;BME280;3229;42.674;23.282;2022-10-16T04:01:31;95356.28;;;12.05;67.77
6393;BME280;3229;42.674;23.282;2022-10-16T04:03:58;95353.84;;;12.04;67.94
6393;BME280;3229;42.674;23.282;2022-10-16T04:06:25;95346.69;;;11.98;67.87
6393;BME280;3229;42.674;23.282;2022-10-16T04:08:52;95352.47;;;12.00;68.05
6393;BME280;3229;42.674;23.282;2022-10-16T04:11:20;95357.59;;;12.00;67.79
6393;BME280;3229;42.674;23.282;2022-10-16T04:13:47;95317.69;;;11.76;67.67
6393;BME280;3229;42.674;23.282;2022-10-16T04:16:14;95343.28;;;11.88;67.77
6393;BME280;3229;42.674;23.282;2022-10-16T04:18:40;95356.22;;;11.96;67.94
6393;BME280;3229;42.674;23.282;2022-10-16T04:21:08;95354.63;;;11.95;67.98
6393;BME280;3229;42.674;23.282;2022-10-16T04:23:35;95359.88;;;11.93;67.95
6393;BME280;3229;42.674;23.282;2022-10-16T04:26:02;95293.47;;;11.50;67.81
6393;BME280;3229;42.674;23.282;2022-10-16T04:28:30;95320.63;;;11.62;67.96
6393;BME280;3229;42.674;23.282;2022-10-16T04:30:57;95368.78;;;11.89;67.84
6393;BME280;3229;42.674;23.282;2022-10-16T04:33:24;95371.34;;;11.89;67.75
6393;BME280;3229;42.674;23.282;2022-10-16T04:35:56;95369.72;;;11.88;68.01
6393;BME280;3229;42.674;23.282;2022-10-16T04:38:23;95371.47;;;11.88;67.92
6393;BME280;3229;42.674;23.282;2022-10-16T04:40:50;95369.03;;;11.86;67.92
6393;BME280;3229;42.674;23.282;2022-10-16T04:43:17;95366.59;;;11.85;67.96
6393;BME280;3229;42.674;23.282;2022-10-16T04:45:46;95365.19;;;11.80;67.73
6393;BME280;3229;42.674;23.282;2022-10-16T04:48:12;95346.41;;;11.70;67.73
6393;BME280;3229;42.674;23.282;2022-10-16T04:50:39;95387.91;;;11.85;67.85
6393;BME280;3229;42.674;23.282;2022-10-16T04:53:07;95388.72;;;11.86;67.78
6393;BME280;3229;42.674;23.282;2022-10-16T04:55:34;95391.13;;;11.87;67.68
6393;BME280;3229;42.674;23.282;2022-10-16T04:58:01;95388.56;;;11.87;67.85
6393;BME280;3229;42.674;23.282;2022-10-16T05:00:28;95367.16;;;11.67;67.65
6393;BME280;3229;42.674;23.282;2022-10-16T05:02:56;95405.31;;;11.91;67.74
6393;BME280;3229;42.674;23.282;2022-10-16T05:05:25;95400.19;;;11.91;67.60
6393;BME280;3229;42.674;23.282;2022-10-16T05:07:51;95404.03;;;11.97;67.65
6393;BME280;3229;42.674;23.282;2022-10-16T05:10:19;95364.06;;;11.73;67.27
6393;BME280;3229;42.674;23.282;2022-10-16T05:12:46;95366.94;;;11.80;67.43
6393;BME280;3229;42.674;23.282;2022-10-16T05:15:13;95410.69;;;12.09;67.47
6393;BME280;3229;42.674;23.282;2022-10-16T05:17:40;95399.59;;;12.09;67.07
6393;BME280;3229;42.674;23.282;2022-10-16T05:20:09;95404.78;;;12.18;67.30
6393;BME280;3229;42.674;23.282;2022-10-16T05:22:36;95376.91;;;12.04;67.28
6393;BME280;3229;42.674;23.282;2022-10-16T05:25:04;95408.88;;;12.30;67.07
6393;BME280;3229;42.674;23.282;2022-10-16T05:27:31;95390.06;;;12.20;66.86
6393;BME280;3229;42.674;23.282;2022-10-16T05:30:13;95415.25;;;12.46;67.03
6393;BME280;3229;42.674;23.282;2022-10-16T05:32:40;95414.59;;;12.53;66.84
6393;BME280;3229;42.674;23.282;2022-10-16T05:35:08;95414.75;;;12.62;66.70
6393;BME280;3229;42.674;23.282;2022-10-16T05:37:38;95420.69;;;12.72;66.50
6393;BME280;3229;42.674;23.282;2022-10-16T05:40:05;95415.72;;;12.80;66.43
6393;BME280;3229;42.674;23.282;2022-10-16T05:42:32;95416.81;;;12.87;66.21
6393;BME280;3229;42.674;23.282;2022-10-16T05:44:59;95399.09;;;12.84;66.09
6393;BME280;3229;42.674;23.282;2022-10-16T05:47:26;95422.91;;;13.05;65.77
6393;BME280;3229;42.674;23.282;2022-10-16T05:49:53;95428.03;;;13.15;65.70
6393;BME280;3229;42.674;23.282;2022-10-16T05:52:22;95417.91;;;13.23;65.47
6393;BME280;3229;42.674;23.282;2022-10-16T05:54:49;95428.84;;;13.45;65.45
6393;BME280;3229;42.674;23.282;2022-10-16T05:57:16;95435.31;;;13.68;65.08
6393;BME280;3229;42.674;23.282;2022-10-16T05:59:43;95431.09;;;13.87;64.82
6393;BME280;3229;42.674;23.282;2022-10-16T06:02:12;95383.31;;;13.84;65.14
6393;BME280;3229;42.674;23.282;2022-10-16T06:04:39;95437.13;;;14.42;65.23
6393;BME280;3229;42.674;23.282;2022-10-16T06:07:06;95439.44;;;14.63;64.14
6393;BME280;3229;42.674;23.282;2022-10-16T06:09:35;95418.41;;;14.68;63.94
6393;BME280;3229;42.674;23.282;2022-10-16T06:12:02;95459.91;;;15.10;63.36
6393;BME280;3229;42.674;23.282;2022-10-16T06:14:29;95467.88;;;15.35;63.41
6393;BME280;3229;42.674;23.282;2022-10-16T06:16:56;95465.16;;;15.72;63.76
6393;BME280;3229;42.674;23.282;2022-10-16T06:19:23;95467.06;;;16.22;64.50
6393;BME280;3229;42.674;23.282;2022-10-16T06:21:50;95463.13;;;16.78;64.53
6393;BME280;3229;42.674;23.282;2022-10-16T06:24:17;95466.50;;;17.53;64.11
6393;BME280;3229;42.674;23.282;2022-10-16T06:26:45;95473.88;;;18.30;63.29
6393;BME280;3229;42.674;23.282;2022-10-16T06:29:12;95406.22;;;18.72;62.05
6393;BME280;3229;42.674;23.282;2022-10-16T06:31:41;95450.28;;;19.72;60.76
6393;BME280;3229;42.674;23.282;2022-10-16T06:34:08;95476.44;;;20.68;59.17
6393;BME280;3229;42.674;23.282;2022-10-16T06:36:37;95444.31;;;21.26;57.77
6393;BME280;3229;42.674;23.282;2022-10-16T06:39:05;95478.38;;;22.17;56.36
6393;BME280;3229;42.674;23.282;2022-10-16T06:41:33;95472.91;;;22.82;55.01
6393;BME280;3229;42.674;23.282;2022-10-16T06:44:04;95470.34;;;23.49;53.45
6393;BME280;3229;42.674;23.282;2022-10-16T06:46:40;95495.69;;;24.28;52.38
6393;BME280;3229;42.674;23.282;2022-10-16T06:49:07;95497.56;;;24.93;50.79
6393;BME280;3229;42.674;23.282;2022-10-16T06:51:34;95482.88;;;25.43;49.58
6393;BME280;3229;42.674;23.282;2022-10-16T06:54:02;95497.19;;;26.04;48.79
6393;BME280;3229;42.674;23.282;2022-10-16T06:56:30;95498.72;;;26.55;47.52
6393;BME280;3229;42.674;23.282;2022-10-16T06:58:58;95512.09;;;27.09;46.37
6393;BME280;3229;42.674;23.282;2022-10-16T07:01:27;95513.13;;;27.56;45.65
6393;BME280;3229;42.674;23.282;2022-10-16T07:03:55;95511.31;;;27.98;44.41
6393;BME280;3229;42.674;23.282;2022-10-16T07:06:23;95520.97;;;28.40;43.83
6393;BME280;3229;42.674;23.282;2022-10-16T07:08:51;95485.97;;;28.51;42.89
6393;BME280;3229;42.674;23.282;2022-10-16T07:11:19;95525.38;;;29.10;42.05
6393;BME280;3229;42.674;23.282;2022-10-16T07:13:47;95518.53;;;29.37;41.62
6393;BME280;3229;42.674;23.282;2022-10-16T07:16:16;95524.41;;;29.68;40.89
6393;BME280;3229;42.674;23.282;2022-10-16T07:18:44;95490.13;;;29.68;40.41
6393;BME280;3229;42.674;23.282;2022-10-16T07:21:15;95526.53;;;30.16;40.00
6393;BME280;3229;42.674;23.282;2022-10-16T07:23:43;95522.63;;;30.36;39.54
6393;BME280;3229;42.674;23.282;2022-10-16T07:26:10;95522.09;;;30.56;39.06
6393;BME280;3229;42.674;23.282;2022-10-16T07:28:38;95533.00;;;30.76;38.91
6393;BME280;3229;42.674;23.282;2022-10-16T07:31:07;95531.09;;;30.93;38.65
6393;BME280;3229;42.674;23.282;2022-10-16T07:33:36;95516.91;;;30.99;38.04
6393;BME280;3229;42.674;23.282;2022-10-16T07:36:05;95533.06;;;31.25;37.67
6393;BME280;3229;42.674;23.282;2022-10-16T07:38:32;95525.28;;;31.35;37.24
6393;BME280;3229;42.674;23.282;2022-10-16T07:41:01;95522.91;;;31.39;37.19
6393;BME280;3229;42.674;23.282;2022-10-16T07:43:29;95511.31;;;31.40;36.94
6393;BME280;3229;42.674;23.282;2022-10-16T07:45:57;95524.50;;;31.62;36.52
6393;BME280;3229;42.674;23.282;2022-10-16T07:48:29;95536.72;;;31.68;36.58
6393;BME280;3229;42.674;23.282;2022-10-16T07:50:58;95533.31;;;31.72;36.11
6393;BME280;3229;42.674;23.282;2022-10-16T07:53:27;95535.72;;;31.74;36.03
6393;BME280;3229;42.674;23.282;2022-10-16T07:55:57;95539.16;;;31.75;35.99
6393;BME280;3229;42.674;23.282;2022-10-16T07:58:25;95539.16;;;31.75;35.50
6393;BME280;3229;42.674;23.282;2022-10-16T08:00:54;95536.47;;;31.69;35.74
6393;BME280;3229;42.674;23.282;2022-10-16T08:03:21;95539.13;;;31.69;35.34
6393;BME280;3229;42.674;23.282;2022-10-16T08:05:51;95503.34;;;31.35;35.73
6393;BME280;3229;42.674;23.282;2022-10-16T08:11:29;95541.56;;;31.27;36.33
6393;BME280;3229;42.674;23.282;2022-10-16T08:13:56;95538.41;;;31.08;36.58
6393;BME280;3229;42.674;23.282;2022-10-16T08:16:23;95484.09;;;30.57;36.52
6393;BME280;3229;42.674;23.282;2022-10-16T08:18:52;95534.56;;;30.77;36.51
6393;BME280;3229;42.674;23.282;2022-10-16T08:21:21;95533.31;;;30.63;36.62
6393;BME280;3229;42.674;23.282;2022-10-16T08:23:49;95529.88;;;30.45;36.49
6393;BME280;3229;42.674;23.282;2022-10-16T08:26:16;95528.84;;;30.30;36.40
6393;BME280;3229;42.674;23.282;2022-10-16T08:28:49;95538.97;;;30.04;36.75
6393;BME280;3229;42.674;23.282;2022-10-16T08:31:16;95533.75;;;29.76;36.44
6393;BME280;3229;42.674;23.282;2022-10-16T08:33:44;95512.84;;;29.29;36.78
6393;BME280;3229;42.674;23.282;2022-10-16T08:36:14;95511.56;;;29.03;36.76
6393;BME280;3229;42.674;23.282;2022-10-16T08:38:47;95521.97;;;28.74;36.92
6393;BME280;3229;42.674;23.282;2022-10-16T08:41:27;95502.41;;;28.35;37.09
6393;BME280;3229;42.674;23.282;2022-10-16T08:44:13;95515.88;;;28.15;37.39
6393;BME280;3229;42.674;23.282;2022-10-16T08:46:47;95515.88;;;27.91;37.61
6393;BME280;3229;42.674;23.282;2022-10-16T08:49:18;95511.78;;;27.65;37.75
6393;BME280;3229;42.674;23.282;2022-10-16T08:51:45;95506.75;;;27.34;37.39
6393;BME280;3229;42.674;23.282;2022-10-16T08:54:23;95530.91;;;27.24;37.85
6393;BME280;3229;42.674;23.282;2022-10-16T08:56:54;95537.03;;;26.99;37.61
6393;BME280;3229;42.674;23.282;2022-10-16T08:59:23;95532.09;;;26.73;37.65
6393;BME280;3229;42.674;23.282;2022-10-16T09:01:50;95537.38;;;26.48;38.25
6393;BME280;3229;42.674;23.282;2022-10-16T09:04:48;95531.72;;;26.19;38.15
6393;BME280;3229;42.674;23.282;2022-10-16T09:07:24;95535.53;;;25.98;38.44
6393;BME280;3229;42.674;23.282;2022-10-16T09:10:07;95505.16;;;25.52;38.20
6393;BME280;3229;42.674;23.282;2022-10-16T09:12:39;95531.38;;;25.52;38.48
6393;BME280;3229;42.674;23.282;2022-10-16T09:15:23;95517.41;;;25.20;38.42
6393;BME280;3229;42.674;23.282;2022-10-16T09:18:01;95531.16;;;25.09;38.27
6393;BME280;3229;42.674;23.282;2022-10-16T09:20:34;95532.63;;;24.92;38.45
6393;BME280;3229;42.674;23.282;2022-10-16T09:23:17;95521.78;;;24.75;38.74
6393;BME280;3229;42.674;23.282;2022-10-16T09:25:46;95521.22;;;24.53;38.51
6393;BME280;3229;42.674;23.282;2022-10-16T09:28:14;95523.66;;;24.41;39.04
6393;BME280;3229;42.674;23.282;2022-10-16T09:30:43;95528.06;;;24.27;38.91
6393;BME280;3229;42.674;23.282;2022-10-16T09:33:15;95533.50;;;24.19;38.76
6393;BME280;3229;42.674;23.282;2022-10-16T09:35:49;95488.88;;;23.81;38.97
6393;BME280;3229;42.674;23.282;2022-10-16T09:38:22;95527.06;;;23.95;39.05
6393;BME280;3229;42.674;23.282;2022-10-16T09:40:49;95524.84;;;23.86;39.08
6393;BME280;3229;42.674;23.282;2022-10-16T09:43:21;95525.03;;;23.77;39.27
6393;BME280;3229;42.674;23.282;2022-10-16T09:45:55;95508.69;;;23.56;39.37
6393;BME280;3229;42.674;23.282;2022-10-16T09:48:22;95527.38;;;23.59;39.42
6393;BME280;3229;42.674;23.282;2022-10-16T09:50:59;95504.88;;;23.45;39.50
6393;BME280;3229;42.674;23.282;2022-10-16T09:53:38;95503.84;;;23.39;39.29
6393;BME280;3229;42.674;23.282;2022-10-16T09:56:05;95492.34;;;23.20;39.64
6393;BME280;3229;42.674;23.282;2022-10-16T09:58:34;95501.78;;;23.21;39.56
6393;BME280;3229;42.674;23.282;2022-10-16T10:01:13;95510.03;;;23.25;39.43
6393;BME280;3229;42.674;23.282;2022-10-16T10:03:41;95504.19;;;23.16;39.87
6393;BME280;3229;42.674;23.282;2022-10-16T10:06:30;95509.59;;;23.15;39.98
6393;BME280;3229;42.674;23.282;2022-10-16T10:09:16;95476.38;;;22.89;39.53
6393;BME280;3229;42.674;23.282;2022-10-16T10:11:51;95505.94;;;23.02;40.00
6393;BME280;3229;42.674;23.282;2022-10-16T10:14:39;95469.09;;;22.77;39.87
6393;BME280;3229;42.674;23.282;2022-10-16T10:17:18;95498.88;;;22.90;39.98
6393;BME280;3229;42.674;23.282;2022-10-16T10:19:52;95509.28;;;22.90;40.14
6393;BME280;3229;42.674;23.282;2022-10-16T10:22:24;95476.25;;;22.69;39.88
6393;BME280;3229;42.674;23.282;2022-10-16T10:25:12;95485.50;;;22.71;40.16
6393;BME280;3229;42.674;23.282;2022-10-16T10:27:53;95493.56;;;22.76;39.85
6393;BME280;3229;42.674;23.282;2022-10-16T10:30:27;95429.56;;;22.33;40.01
6393;BME280;3229;42.674;23.282;2022-10-16T10:33:11;95477.22;;;22.61;40.14
6393;BME280;3229;42.674;23.282;2022-10-16T10:35:45;95476.63;;;22.59;40.41
6393;BME280;3229;42.674;23.282;2022-10-16T10:38:27;95485.47;;;22.65;40.08
6393;BME280;3229;42.674;23.282;2022-10-16T10:41:06;95455.91;;;22.51;40.06
6393;BME280;3229;42.674;23.282;2022-10-16T10:43:52;95418.28;;;22.25;39.98
6393;BME280;3229;42.674;23.282;2022-10-16T10:46:31;95481.03;;;22.59;40.18
6393;BME280;3229;42.674;23.282;2022-10-16T10:49:24;95474.41;;;22.56;39.91
6393;BME280;3229;42.674;23.282;2022-10-16T10:52:07;95435.34;;;22.28;39.77
6393;BME280;3229;42.674;23.282;2022-10-16T10:54:47;95456.06;;;22.43;40.03
6393;BME280;3229;42.674;23.282;2022-10-16T10:57:22;95455.88;;;22.44;40.10
6393;BME280;3229;42.674;23.282;2022-10-16T11:00:10;95466.94;;;22.46;40.02
6393;BME280;3229;42.674;23.282;2022-10-16T11:02:48;95449.84;;;22.37;40.12
6393;BME280;3229;42.674;23.282;2022-10-16T11:05:29;95447.22;;;22.37;40.27
6393;BME280;3229;42.674;23.282;2022-10-16T11:08:02;95422.47;;;22.20;40.06
6393;BME280;3229;42.674;23.282;2022-10-16T11:10:42;95455.66;;;22.39;40.08
6393;BME280;3229;42.674;23.282;2022-10-16T11:13:20;95460.88;;;22.39;40.30
6393;BME280;3229;42.674;23.282;2022-10-16T11:15:57;95451.44;;;22.38;40.02
6393;BME280;3229;42.674;23.282;2022-10-16T11:18:29;95444.81;;;22.36;40.18
6393;BME280;3229;42.674;23.282;2022-10-16T11:21:02;95444.00;;;22.35;40.13
6393;BME280;3229;42.674;23.282;2022-10-16T11:23:35;95441.59;;;22.34;40.22
6393;BME280;3229;42.674;23.282;2022-10-16T11:26:11;95446.00;;;22.33;40.22
6393;BME280;3229;42.674;23.282;2022-10-16T11:28:42;95441.78;;;22.32;39.95
6393;BME280;3229;42.674;23.282;2022-10-16T11:31:16;95399.91;;;22.05;39.91
6393;BME280;3229;42.674;23.282;2022-10-16T11:33:47;95429.66;;;22.18;40.04
6393;BME280;3229;42.674;23.282;2022-10-16T11:36:23;95443.78;;;22.30;40.06
6393;BME280;3229;42.674;23.282;2022-10-16T11:38:58;95428.50;;;22.20;39.96
6393;BME280;3229;42.674;23.282;2022-10-16T11:41:32;95403.06;;;22.01;39.81
6393;BME280;3229;42.674;23.282;2022-10-16T11:44:18;95438.13;;;22.20;39.92
6393;BME280;3229;42.674;23.282;2022-10-16T11:46:52;95441.69;;;22.19;39.96
6393;BME280;3229;42.674;23.282;2022-10-16T11:49:41;95421.38;;;22.08;40.21
6393;BME280;3229;42.674;23.282;2022-10-16T11:52:16;95424.97;;;22.07;40.28
6393;BME280;3229;42.674;23.282;2022-10-16T11:54:50;95400.00;;;21.91;40.18
6393;BME280;3229;42.674;23.282;2022-10-16T11:57:22;95442.28;;;22.14;40.31
6393;BME280;3229;42.674;23.282;2022-10-16T11:59:53;95438.88;;;22.14;40.26
6393;BME280;3229;42.674;23.282;2022-10-16T12:02:43;95440.84;;;22.12;39.98
6393;BME280;3229;42.674;23.282;2022-10-16T12:05:23;95417.31;;;21.98;40.29
6393;BME280;3229;42.674;23.282;2022-10-16T12:08:01;95443.00;;;22.08;40.45
6393;BME280;3229;42.674;23.282;2022-10-16T12:10:31;95419.66;;;21.93;40.27
6393;BME280;3229;42.674;23.282;2022-10-16T12:13:02;95382.88;;;21.75;40.30
6393;BME280;3229;42.674;23.282;2022-10-16T12:15:31;95436.56;;;22.04;40.57
6393;BME280;3229;42.674;23.282;2022-10-16T12:17:58;95421.44;;;21.93;40.54
6393;BME280;3229;42.674;23.282;2022-10-16T12:20:27;95431.72;;;22.01;40.39
6393;BME280;3229;42.674;23.282;2022-10-16T12:22:59;95435.34;;;22.00;40.64
6393;BME280;3229;42.674;23.282;2022-10-16T12:25:29;95414.78;;;21.84;40.69
6393;BME280;3229;42.674;23.282;2022-10-16T12:28:00;95434.75;;;21.98;40.90
6393;BME280;3229;42.674;23.282;2022-10-16T12:30:29;95436.72;;;21.96;40.81
6393;BME280;3229;42.674;23.282;2022-10-16T12:32:58;95421.00;;;21.83;40.73
6393;BME280;3229;42.674;23.282;2022-10-16T12:35:29;95433.50;;;21.94;41.08
6393;BME280;3229;42.674;23.282;2022-10-16T12:38:07;95444.09;;;21.92;41.02
6393;BME280;3229;42.674;23.282;2022-10-16T12:40:36;95433.06;;;21.90;41.08
6393;BME280;3229;42.674;23.282;2022-10-16T12:43:34;95435.84;;;21.89;41.04
6393;BME280;3229;42.674;23.282;2022-10-16T12:46:04;95435.44;;;21.85;40.84
6393;BME280;3229;42.674;23.282;2022-10-16T12:48:31;95442.44;;;21.85;40.92
6393;BME280;3229;42.674;23.282;2022-10-16T12:51:09;95427.94;;;21.75;41.28
6393;BME280;3229;42.674;23.282;2022-10-16T12:53:38;95431.19;;;21.77;41.25
6393;BME280;3229;42.674;23.282;2022-10-16T12:56:13;95448.19;;;21.80;41.35
6393;BME280;3229;42.674;23.282;2022-10-16T12:58:53;95445.81;;;21.78;41.01
6393;BME280;3229;42.674;23.282;2022-10-16T13:01:36;95410.75;;;21.53;41.16
6393;BME280;3229;42.674;23.282;2022-10-16T13:07:21;95453.56;;;21.72;41.43
6393;BME280;3229;42.674;23.282;2022-10-16T13:10:05;95423.16;;;21.51;41.12
6393;BME280;3229;42.674;23.282;2022-10-16T13:12:56;95450.69;;;21.67;41.04
6393;BME280;3229;42.674;23.282;2022-10-16T13:18:38;95453.69;;;21.64;41.37
6393;BME280;3229;42.674;23.282;2022-10-16T13:21:20;95440.06;;;21.62;41.27
6393;BME280;3229;42.674;23.282;2022-10-16T13:24:02;95444.66;;;21.60;41.26
6393;BME280;3229;42.674;23.282;2022-10-16T13:26:40;95393.44;;;21.24;41.41
6393;BME280;3229;42.674;23.282;2022-10-16T13:29:14;95449.22;;;21.58;41.33
6393;BME280;3229;42.674;23.282;2022-10-16T13:31:42;95434.13;;;21.46;41.37
6393;BME280;3229;42.674;23.282;2022-10-16T13:34:14;95449.63;;;21.54;41.34
6393;BME280;3229;42.674;23.282;2022-10-16T13:36:46;95457.78;;;21.51;41.22
6393;BME280;3229;42.674;23.282;2022-10-16T13:39:21;95415.31;;;21.29;41.42
6393;BME280;3229;42.674;23.282;2022-10-16T13:42:01;95420.91;;;21.26;41.24